createdAt,value
2018-08-21T00:01:52.349Z,6.37
2018-08-21T00:04:22.777Z,5.93
2018-08-21T00:06:54.683Z,5.70
2018-08-21T00:09:26.824Z,6.77
2018-08-21T00:11:58.805Z,6.20
2018-08-21T00:14:30.412Z,6.80
2018-08-21T00:17:03.853Z,6.83
2018-08-21T00:19:35.394Z,7.43
2018-08-21T00:22:10.817Z,8.30
2018-08-21T00:24:42.031Z,6.57
2018-08-21T00:27:13.421Z,7.93
2018-08-21T00:29:50.836Z,7.17
2018-08-21T00:32:24.321Z,6.73
2018-08-21T00:34:55.538Z,6.47
2018-08-21T00:37:27.438Z,6.97
2018-08-21T00:39:59.117Z,6.40
2018-08-21T00:42:29.893Z,6.60
2018-08-21T00:45:05.537Z,6.50
2018-08-21T00:47:38.529Z,6.90
2018-08-21T00:50:10.096Z,7.20
2018-08-21T00:52:44.054Z,6.50
2018-08-21T00:55:14.980Z,6.27
2018-08-21T00:57:48.741Z,5.97
2018-08-21T01:00:24.490Z,6.47
2018-08-21T01:02:56.197Z,6.47
2018-08-21T01:05:33.257Z,6.87
2018-08-21T01:08:04.788Z,6.53
2018-08-21T01:13:38.797Z,7.60
2018-08-21T01:16:10.121Z,7.43
2018-08-21T01:18:40.957Z,7.30
2018-08-21T01:21:15.257Z,7.07
2018-08-21T01:23:47.342Z,6.50
2018-08-21T01:26:18.440Z,5.97
2018-08-21T01:28:50.283Z,6.40
2018-08-21T01:31:21.225Z,6.87
2018-08-21T01:33:52.278Z,6.70
2018-08-21T01:36:22.789Z,6.23
2018-08-21T01:38:54.175Z,7.00
2018-08-21T01:41:24.937Z,6.53
2018-08-21T01:43:57.436Z,6.30
2018-08-21T01:46:29.676Z,7.40
2018-08-21T01:49:01.990Z,7.37
2018-08-21T01:51:33.976Z,6.00
2018-08-21T01:54:17.802Z,6.63
2018-08-21T01:56:50.621Z,5.90
2018-08-21T01:59:22.253Z,7.37
2018-08-21T02:01:56.044Z,6.87
2018-08-21T02:04:27.662Z,7.03
2018-08-21T02:06:58.481Z,7.40
2018-08-21T02:09:30.797Z,6.87
2018-08-21T02:12:02.881Z,6.03
2018-08-21T02:14:34.377Z,5.93
2018-08-21T02:17:04.575Z,6.80
2018-08-21T02:19:36.284Z,6.30
2018-08-21T02:22:07.312Z,8.00
2018-08-21T02:24:39.070Z,7.40
2018-08-21T02:27:09.533Z,7.50
2018-08-21T02:29:41.522Z,6.47
2018-08-21T02:32:14.254Z,7.60
2018-08-21T02:34:46.089Z,6.40
2018-08-21T02:37:17.933Z,6.40
2018-08-21T02:39:50.198Z,7.10
2018-08-21T02:42:22.717Z,6.33
2018-08-21T02:45:09.037Z,7.07
2018-08-21T02:47:41.065Z,6.70
2018-08-21T02:50:13.221Z,7.53
2018-08-21T02:52:44.942Z,6.80
2018-08-21T02:55:15.901Z,7.33
2018-08-21T02:57:48.242Z,7.17
2018-08-21T03:00:21.138Z,6.80
2018-08-21T03:02:54.105Z,7.57
2018-08-21T03:05:26.320Z,6.67
2018-08-21T03:07:58.093Z,7.67
2018-08-21T03:10:29.773Z,6.40
2018-08-21T03:13:00.939Z,6.20
2018-08-21T03:15:32.378Z,7.20
2018-08-21T03:18:04.881Z,8.00
2018-08-21T03:20:35.798Z,6.80
2018-08-21T03:23:07.214Z,7.10
2018-08-21T03:25:42.089Z,6.80
2018-08-21T03:28:13.116Z,7.23
2018-08-21T03:30:50.549Z,6.97
2018-08-21T03:33:22.996Z,6.80
2018-08-21T03:35:55.649Z,6.20
2018-08-21T03:38:27.297Z,6.33
2018-08-21T03:40:58.186Z,6.90
2018-08-21T03:43:30.733Z,6.63
2018-08-21T03:46:05.114Z,7.97
2018-08-21T03:48:37.145Z,7.60
2018-08-21T03:51:09.006Z,6.50
2018-08-21T03:53:55.384Z,7.13
2018-08-21T03:56:31.980Z,8.07
2018-08-21T03:59:03.309Z,7.20
2018-08-21T04:01:34.921Z,8.60
2018-08-21T04:04:11.887Z,7.10
2018-08-21T04:06:44.169Z,6.90
2018-08-21T04:09:17.565Z,7.40
2018-08-21T04:11:50.516Z,8.17
2018-08-21T04:14:23.580Z,8.10
2018-08-21T04:16:58.343Z,7.70
2018-08-21T04:19:30.079Z,7.90
2018-08-21T04:22:11.101Z,7.73
2018-08-21T04:24:43.360Z,7.57
2018-08-21T04:27:21.286Z,8.03
2018-08-21T04:29:59.289Z,7.90
2018-08-21T04:32:31.617Z,7.57
2018-08-21T04:35:04.717Z,8.10
2018-08-21T04:37:35.740Z,8.73
2018-08-21T04:40:11.063Z,9.10
2018-08-21T21:06:19.793Z,8.00
2018-08-21T21:08:47.394Z,8.30
2018-08-21T21:11:15.071Z,8.33
2018-08-21T21:13:54.118Z,7.70
2018-08-21T21:16:33.211Z,8.37
2018-08-21T21:19:12.278Z,7.40
2018-08-21T21:21:51.413Z,7.50
2018-08-21T21:24:24.176Z,8.13
2018-08-21T21:26:52.086Z,8.03
2018-08-21T21:29:19.692Z,8.27
2018-08-21T21:31:47.301Z,8.30
2018-08-21T21:34:14.936Z,8.23
2018-08-21T21:36:42.518Z,8.47
2018-08-21T21:39:11.902Z,7.60
2018-08-21T21:41:39.494Z,8.10
2018-08-21T21:44:07.109Z,9.57
2018-08-21T21:46:34.827Z,9.07
2018-08-21T21:49:02.497Z,7.83
2018-08-21T21:51:30.052Z,8.93
2018-08-21T21:53:58.131Z,8.37
2018-08-21T21:56:25.776Z,8.23
2018-08-21T21:58:53.493Z,9.30
2018-08-21T22:01:21.151Z,7.90
2018-08-21T22:03:48.735Z,8.30
2018-08-21T22:06:16.293Z,8.30
2018-08-21T22:08:43.877Z,9.57
2018-08-21T22:11:11.444Z,9.20
2018-08-21T22:13:39.053Z,9.00
2018-08-21T22:16:06.620Z,8.63
2018-08-21T22:18:34.464Z,7.80
2018-08-21T22:21:02.152Z,7.93
2018-08-21T22:23:29.712Z,8.03
2018-08-21T22:25:58.305Z,8.30
2018-08-21T22:28:26.860Z,8.60
2018-08-21T22:30:54.448Z,7.90
2018-08-21T22:33:22.108Z,7.87
2018-08-21T22:35:49.700Z,7.93
2018-08-21T22:38:18.308Z,8.57
2018-08-21T22:40:46.121Z,7.83
2018-08-21T22:43:13.807Z,7.87
2018-08-21T22:45:41.389Z,8.43
2018-08-21T22:48:08.947Z,7.43
2018-08-21T22:50:36.544Z,7.63
2018-08-21T22:53:04.137Z,8.07
2018-08-21T22:55:31.696Z,9.60
2018-08-21T22:57:59.309Z,8.33
2018-08-21T23:00:27.524Z,8.23
2018-08-21T23:02:56.133Z,7.90
2018-08-21T23:05:23.736Z,9.20
2018-08-21T23:07:51.309Z,9.53
2018-08-21T23:10:18.880Z,8.80
2018-08-21T23:12:46.462Z,8.73
2018-08-21T23:15:14.060Z,8.50
2018-08-21T23:17:41.629Z,10.67
2018-08-21T23:20:09.238Z,9.77
2018-08-21T23:22:36.816Z,10.37
2018-08-21T23:25:04.480Z,10.93
2018-08-21T23:27:32.039Z,10.47
2018-08-21T23:29:59.601Z,10.93
2018-08-21T23:32:27.140Z,10.00
2018-08-21T23:34:54.738Z,10.03
2018-08-21T23:37:22.301Z,10.13
2018-08-21T23:39:49.892Z,11.43
2018-08-21T23:42:17.450Z,9.57
2018-08-21T23:44:45.053Z,10.77
2018-08-21T23:47:12.677Z,10.37
2018-08-21T23:49:40.353Z,9.77
2018-08-21T23:52:07.956Z,10.00
2018-08-21T23:54:35.561Z,10.10
2018-08-21T23:57:03.152Z,10.60
2018-08-21T23:59:30.728Z,10.60
